sensor_id;sensor_type;location;lat;lon;timestamp;P1;durP1;ratioP1;P2;durP2;ratioP2
22826;SDS011;11580;52.562;13.418;2023-09-07T00:00:32;9.50;;;8.83;;
22826;SDS011;11580;52.562;13.418;2023-09-07T00:03:00;10.43;;;9.57;;
22826;SDS011;11580;52.562;13.418;2023-09-07T00:05:29;9.30;;;8.60;;
22826;SDS011;11580;52.562;13.418;2023-09-07T00:07:57;10.47;;;9.67;;
22826;SDS011;11580;52.562;13.418;2023-09-07T00:10:24;9.80;;;8.90;;
22826;SDS011;11580;52.562;13.418;2023-09-07T00:12:52;9.37;;;8.50;;
22826;SDS011;11580;52.562;13.418;2023-09-07T00:15:19;8.60;;;7.90;;
22826;SDS011;11580;52.562;13.418;2023-09-07T00:17:46;9.50;;;8.70;;
22826;SDS011;11580;52.562;13.418;2023-09-07T00:20:15;8.87;;;8.17;;
22826;SDS011;11580;52.562;13.418;2023-09-07T00:22:44;7.83;;;7.13;;
22826;SDS011;11580;52.562;13.418;2023-09-07T00:25:11;8.20;;;7.70;;
22826;SDS011;11580;52.562;13.418;2023-09-07T00:27:38;7.53;;;7.03;;
22826;SDS011;11580;52.562;13.418;2023-09-07T00:30:06;8.00;;;7.40;;
22826;SDS011;11580;52.562;13.418;2023-09-07T00:32:35;6.90;;;6.50;;
22826;SDS011;11580;52.562;13.418;2023-09-07T00:35:03;7.60;;;7.07;;
22826;SDS011;11580;52.562;13.418;2023-09-07T00:37:33;7.80;;;7.20;;
22826;SDS011;11580;52.562;13.418;2023-09-07T00:40:00;7.27;;;6.73;;
22826;SDS011;11580;52.562;13.418;2023-09-07T00:42:29;7.57;;;6.97;;
22826;SDS011;11580;52.562;13.418;2023-09-07T00:44:56;7.60;;;6.90;;
22826;SDS011;11580;52.562;13.418;2023-09-07T00:47:23;8.13;;;7.57;;
22826;SDS011;11580;52.562;13.418;2023-09-07T00:49:51;7.07;;;6.57;;
22826;SDS011;11580;52.562;13.418;2023-09-07T00:52:18;7.53;;;6.97;;
22826;SDS011;11580;52.562;13.418;2023-09-07T00:54:48;7.43;;;6.93;;
22826;SDS011;11580;52.562;13.418;2023-09-07T00:57:16;7.70;;;7.00;;
22826;SDS011;11580;52.562;13.418;2023-09-07T00:59:43;7.10;;;6.60;;
22826;SDS011;11580;52.562;13.418;2023-09-07T01:02:10;7.80;;;7.20;;
22826;SDS011;11580;52.562;13.418;2023-09-07T01:04:37;7.33;;;6.73;;
22826;SDS011;11580;52.562;13.418;2023-09-07T01:07:07;7.93;;;7.27;;
22826;SDS011;11580;52.562;13.418;2023-09-07T01:09:43;7.30;;;6.80;;
22826;SDS011;11580;52.562;13.418;2023-09-07T01:12:16;7.07;;;6.57;;
22826;SDS011;11580;52.562;13.418;2023-09-07T01:14:44;7.50;;;7.00;;
22826;SDS011;11580;52.562;13.418;2023-09-07T01:17:11;7.87;;;7.27;;
22826;SDS011;11580;52.562;13.418;2023-09-07T01:19:39;6.97;;;6.53;;
22826;SDS011;11580;52.562;13.418;2023-09-07T01:22:09;7.23;;;6.73;;
22826;SDS011;11580;52.562;13.418;2023-09-07T01:24:37;7.70;;;7.10;;
22826;SDS011;11580;52.562;13.418;2023-09-07T01:27:05;7.30;;;6.60;;
22826;SDS011;11580;52.562;13.418;2023-09-07T01:29:33;7.63;;;7.10;;
22826;SDS011;11580;52.562;13.418;2023-09-07T01:32:04;7.67;;;7.07;;
22826;SDS011;11580;52.562;13.418;2023-09-07T01:34:32;8.80;;;8.03;;
22826;SDS011;11580;52.562;13.418;2023-09-07T01:36:59;7.07;;;6.57;;
22826;SDS011;11580;52.562;13.418;2023-09-07T01:39:27;6.97;;;6.50;;
22826;SDS011;11580;52.562;13.418;2023-09-07T01:41:54;10.80;;;6.80;;
22826;SDS011;11580;52.562;13.418;2023-09-07T01:44:22;7.97;;;7.27;;
22826;SDS011;11580;52.562;13.418;2023-09-07T01:46:49;6.50;;;6.00;;
22826;SDS011;11580;52.562;13.418;2023-09-07T01:49:16;7.37;;;6.73;;
22826;SDS011;11580;52.562;13.418;2023-09-07T01:51:43;7.10;;;6.60;;
22826;SDS011;11580;52.562;13.418;2023-09-07T01:54:10;6.90;;;6.40;;
22826;SDS011;11580;52.562;13.418;2023-09-07T01:56:39;7.40;;;6.90;;
22826;SDS011;11580;52.562;13.418;2023-09-07T01:59:07;8.03;;;7.53;;
22826;SDS011;11580;52.562;13.418;2023-09-07T02:01:34;8.10;;;7.50;;
22826;SDS011;11580;52.562;13.418;2023-09-07T02:04:02;7.23;;;6.60;;
22826;SDS011;11580;52.562;13.418;2023-09-07T02:06:30;7.63;;;7.07;;
22826;SDS011;11580;52.562;13.418;2023-09-07T02:08:57;7.87;;;7.30;;
22826;SDS011;11580;52.562;13.418;2023-09-07T02:11:24;7.67;;;7.07;;
22826;SDS011;11580;52.562;13.418;2023-09-07T02:13:53;7.60;;;7.03;;
22826;SDS011;11580;52.562;13.418;2023-09-07T02:16:20;8.27;;;7.67;;
22826;SDS011;11580;52.562;13.418;2023-09-07T02:18:48;7.43;;;6.93;;
22826;SDS011;11580;52.562;13.418;2023-09-07T02:21:17;7.87;;;7.27;;
22826;SDS011;11580;52.562;13.418;2023-09-07T02:23:44;7.17;;;6.63;;
22826;SDS011;11580;52.562;13.418;2023-09-07T02:26:11;7.23;;;6.73;;
22826;SDS011;11580;52.562;13.418;2023-09-07T02:28:38;8.50;;;7.73;;
22826;SDS011;11580;52.562;13.418;2023-09-07T02:31:08;7.83;;;7.30;;
22826;SDS011;11580;52.562;13.418;2023-09-07T02:33:35;7.80;;;7.23;;
22826;SDS011;11580;52.562;13.418;2023-09-07T02:36:03;8.20;;;7.57;;
22826;SDS011;11580;52.562;13.418;2023-09-07T02:38:31;8.10;;;7.50;;
22826;SDS011;11580;52.562;13.418;2023-09-07T02:40:58;7.70;;;7.03;;
22826;SDS011;11580;52.562;13.418;2023-09-07T02:43:26;8.10;;;7.40;;
22826;SDS011;11580;52.562;13.418;2023-09-07T02:45:53;7.60;;;7.10;;
22826;SDS011;11580;52.562;13.418;2023-09-07T02:48:23;7.90;;;7.30;;
22826;SDS011;11580;52.562;13.418;2023-09-07T02:50:50;7.70;;;7.20;;
22826;SDS011;11580;52.562;13.418;2023-09-07T02:53:21;8.43;;;7.80;;
22826;SDS011;11580;52.562;13.418;2023-09-07T02:55:48;8.40;;;7.80;;
22826;SDS011;11580;52.562;13.418;2023-09-07T02:58:16;7.90;;;7.37;;
22826;SDS011;11580;52.562;13.418;2023-09-07T03:00:43;7.73;;;7.13;;
22826;SDS011;11580;52.562;13.418;2023-09-07T03:03:14;8.50;;;7.80;;
22826;SDS011;11580;52.562;13.418;2023-09-07T03:05:44;7.40;;;6.90;;
22826;SDS011;11580;52.562;13.418;2023-09-07T03:08:11;8.43;;;7.83;;
22826;SDS011;11580;52.562;13.418;2023-09-07T03:10:38;7.90;;;7.30;;
22826;SDS011;11580;52.562;13.418;2023-09-07T03:13:06;8.33;;;7.67;;
22826;SDS011;11580;52.562;13.418;2023-09-07T03:15:33;8.27;;;7.57;;
22826;SDS011;11580;52.562;13.418;2023-09-07T03:18:04;7.77;;;7.13;;
22826;SDS011;11580;52.562;13.418;2023-09-07T03:20:32;8.00;;;7.40;;
22826;SDS011;11580;52.562;13.418;2023-09-07T03:23:01;8.37;;;7.73;;
22826;SDS011;11580;52.562;13.418;2023-09-07T03:25:29;8.43;;;7.73;;
22826;SDS011;11580;52.562;13.418;2023-09-07T03:27:56;8.70;;;8.00;;
22826;SDS011;11580;52.562;13.418;2023-09-07T03:30:23;9.40;;;8.70;;
22826;SDS011;11580;52.562;13.418;2023-09-07T03:32:52;9.70;;;8.93;;
22826;SDS011;11580;52.562;13.418;2023-09-07T03:35:19;9.97;;;9.07;;
22826;SDS011;11580;52.562;13.418;2023-09-07T03:37:46;9.47;;;8.67;;
22826;SDS011;11580;52.562;13.418;2023-09-07T03:40:15;9.17;;;8.47;;
22826;SDS011;11580;52.562;13.418;2023-09-07T03:42:41;9.03;;;8.43;;
22826;SDS011;11580;52.562;13.418;2023-09-07T03:45:11;9.80;;;9.00;;
22826;SDS011;11580;52.562;13.418;2023-09-07T03:47:38;9.40;;;8.47;;
22826;SDS011;11580;52.562;13.418;2023-09-07T03:50:06;9.20;;;8.50;;
22826;SDS011;11580;52.562;13.418;2023-09-07T03:52:34;9.20;;;8.50;;
22826;SDS011;11580;52.562;13.418;2023-09-07T03:55:03;9.50;;;8.80;;
22826;SDS011;11580;52.562;13.418;2023-09-07T03:57:32;9.30;;;8.50;;
22826;SDS011;11580;52.562;13.418;2023-09-07T04:00:00;8.50;;;7.90;;
22826;SDS011;11580;52.562;13.418;2023-09-07T04:02:38;9.93;;;9.17;;
22826;SDS011;11580;52.562;13.418;2023-09-07T04:05:07;10.00;;;9.07;;
22826;SDS011;11580;52.562;13.418;2023-09-07T04:07:36;10.27;;;9.40;;
22826;SDS011;11580;52.562;13.418;2023-09-07T04:10:03;10.50;;;9.80;;
22826;SDS011;11580;52.562;13.418;2023-09-07T04:12:32;12.33;;;11.33;;
22826;SDS011;11580;52.562;13.418;2023-09-07T04:17:28;11.37;;;10.27;;
22826;SDS011;11580;52.562;13.418;2023-09-07T04:19:58;12.10;;;11.10;;
22826;SDS011;11580;52.562;13.418;2023-09-07T04:22:25;10.60;;;9.80;;
22826;SDS011;11580;52.562;13.418;2023-09-07T04:24:53;10.57;;;9.57;;
22826;SDS011;11580;52.562;13.418;2023-09-07T04:27:20;10.03;;;9.23;;
22826;SDS011;11580;52.562;13.418;2023-09-07T04:29:49;9.83;;;9.03;;
22826;SDS011;11580;52.562;13.418;2023-09-07T04:32:16;9.10;;;8.40;;
22826;SDS011;11580;52.562;13.418;2023-09-07T04:34:43;9.90;;;9.20;;
22826;SDS011;11580;52.562;13.418;2023-09-07T04:37:11;9.40;;;8.70;;
22826;SDS011;11580;52.562;13.418;2023-09-07T04:39:38;10.40;;;9.53;;
22826;SDS011;11580;52.562;13.418;2023-09-07T04:42:06;9.00;;;8.20;;
22826;SDS011;11580;52.562;13.418;2023-09-07T04:44:34;10.17;;;8.90;;
22826;SDS011;11580;52.562;13.418;2023-09-07T04:47:02;9.93;;;9.20;;
22826;SDS011;11580;52.562;13.418;2023-09-07T04:49:30;9.90;;;8.97;;
22826;SDS011;11580;52.562;13.418;2023-09-07T04:51:57;9.53;;;8.77;;
22826;SDS011;11580;52.562;13.418;2023-09-07T04:54:24;11.60;;;10.70;;
22826;SDS011;11580;52.562;13.418;2023-09-07T04:56:51;10.30;;;9.40;;
22826;SDS011;11580;52.562;13.418;2023-09-07T04:59:18;11.60;;;10.57;;
22826;SDS011;11580;52.562;13.418;2023-09-07T05:01:46;10.10;;;8.33;;
22826;SDS011;11580;52.562;13.418;2023-09-07T05:04:14;9.37;;;8.63;;
22826;SDS011;11580;52.562;13.418;2023-09-07T05:06:41;9.40;;;8.70;;
22826;SDS011;11580;52.562;13.418;2023-09-07T05:09:09;10.10;;;8.93;;
22826;SDS011;11580;52.562;13.418;2023-09-07T05:11:36;9.73;;;8.93;;
22826;SDS011;11580;52.562;13.418;2023-09-07T05:14:03;9.60;;;8.77;;
22826;SDS011;11580;52.562;13.418;2023-09-07T05:16:31;9.90;;;9.10;;
22826;SDS011;11580;52.562;13.418;2023-09-07T05:18:58;9.20;;;8.47;;
22826;SDS011;11580;52.562;13.418;2023-09-07T05:21:27;9.83;;;9.13;;
22826;SDS011;11580;52.562;13.418;2023-09-07T05:23:54;9.50;;;8.70;;
22826;SDS011;11580;52.562;13.418;2023-09-07T05:26:21;9.80;;;9.10;;
22826;SDS011;11580;52.562;13.418;2023-09-07T05:28:50;8.23;;;7.63;;
22826;SDS011;11580;52.562;13.418;2023-09-07T05:31:17;9.00;;;8.40;;
22826;SDS011;11580;52.562;13.418;2023-09-07T05:33:44;9.37;;;8.57;;
22826;SDS011;11580;52.562;13.418;2023-09-07T05:36:12;9.60;;;8.90;;
22826;SDS011;11580;52.562;13.418;2023-09-07T05:38:40;10.30;;;9.43;;
22826;SDS011;11580;52.562;13.418;2023-09-07T05:41:07;8.60;;;7.90;;
22826;SDS011;11580;52.562;13.418;2023-09-07T05:43:35;9.40;;;8.60;;
22826;SDS011;11580;52.562;13.418;2023-09-07T05:46:02;9.10;;;8.50;;
22826;SDS011;11580;52.562;13.418;2023-09-07T05:48:30;9.47;;;8.77;;
22826;SDS011;11580;52.562;13.418;2023-09-07T05:50:57;8.77;;;8.07;;
22826;SDS011;11580;52.562;13.418;2023-09-07T05:53:24;9.00;;;8.20;;
22826;SDS011;11580;52.562;13.418;2023-09-07T05:55:54;9.97;;;9.27;;
22826;SDS011;11580;52.562;13.418;2023-09-07T05:58:21;9.60;;;8.70;;
22826;SDS011;11580;52.562;13.418;2023-09-07T06:00:48;8.80;;;8.13;;
22826;SDS011;11580;52.562;13.418;2023-09-07T06:03:15;8.60;;;8.00;;
22826;SDS011;11580;52.562;13.418;2023-09-07T06:05:42;9.50;;;8.63;;
22826;SDS011;11580;52.562;13.418;2023-09-07T06:08:10;9.77;;;9.00;;
22826;SDS011;11580;52.562;13.418;2023-09-07T06:10:37;8.77;;;8.07;;
22826;SDS011;11580;52.562;13.418;2023-09-07T06:13:07;9.70;;;8.97;;
22826;SDS011;11580;52.562;13.418;2023-09-07T06:15:35;9.20;;;8.50;;
22826;SDS011;11580;52.562;13.418;2023-09-07T06:18:02;9.83;;;9.03;;
22826;SDS011;11580;52.562;13.418;2023-09-07T06:20:31;9.07;;;8.37;;
22826;SDS011;11580;52.562;13.418;2023-09-07T06:22:59;8.90;;;8.20;;
22826;SDS011;11580;52.562;13.418;2023-09-07T06:25:26;9.87;;;8.63;;
22826;SDS011;11580;52.562;13.418;2023-09-07T06:27:54;13.67;;;8.70;;
22826;SDS011;11580;52.562;13.418;2023-09-07T06:30:24;8.77;;;7.97;;
22826;SDS011;11580;52.562;13.418;2023-09-07T06:32:51;9.20;;;8.27;;
22826;SDS011;11580;52.562;13.418;2023-09-07T06:35:18;8.80;;;7.97;;
22826;SDS011;11580;52.562;13.418;2023-09-07T06:37:46;8.77;;;8.03;;
22826;SDS011;11580;52.562;13.418;2023-09-07T06:40:16;9.13;;;8.43;;
22826;SDS011;11580;52.562;13.418;2023-09-07T06:42:44;8.60;;;7.90;;
22826;SDS011;11580;52.562;13.418;2023-09-07T06:45:15;8.73;;;8.00;;
22826;SDS011;11580;52.562;13.418;2023-09-07T06:47:43;8.50;;;7.90;;
22826;SDS011;11580;52.562;13.418;2023-09-07T06:50:10;12.00;;;8.70;;
22826;SDS011;11580;52.562;13.418;2023-09-07T06:52:38;8.23;;;7.60;;
22826;SDS011;11580;52.562;13.418;2023-09-07T06:55:06;8.23;;;7.67;;
22826;SDS011;11580;52.562;13.418;2023-09-07T06:57:33;8.10;;;7.50;;
22826;SDS011;11580;52.562;13.418;2023-09-07T07:00:02;8.03;;;7.33;;
22826;SDS011;11580;52.562;13.418;2023-09-07T07:02:32;10.80;;;7.67;;
22826;SDS011;11580;52.562;13.418;2023-09-07T07:05:01;8.67;;;8.00;;
22826;SDS011;11580;52.562;13.418;2023-09-07T07:07:29;7.83;;;7.33;;
22826;SDS011;11580;52.562;13.418;2023-09-07T07:09:57;7.67;;;7.03;;
22826;SDS011;11580;52.562;13.418;2023-09-07T07:12:24;8.70;;;8.00;;
22826;SDS011;11580;52.562;13.418;2023-09-07T07:14:52;8.07;;;7.47;;
22826;SDS011;11580;52.562;13.418;2023-09-07T07:17:20;33.97;;;14.70;;
22826;SDS011;11580;52.562;13.418;2023-09-07T07:19:48;10.83;;;9.43;;
22826;SDS011;11580;52.562;13.418;2023-09-07T07:22:16;8.97;;;8.17;;
22826;SDS011;11580;52.562;13.418;2023-09-07T07:24:44;7.80;;;6.90;;
22826;SDS011;11580;52.562;13.418;2023-09-07T07:27:12;8.00;;;7.30;;
22826;SDS011;11580;52.562;13.418;2023-09-07T07:29:40;8.27;;;7.67;;
22826;SDS011;11580;52.562;13.418;2023-09-07T07:32:07;8.50;;;7.77;;
22826;SDS011;11580;52.562;13.418;2023-09-07T07:34:34;7.20;;;6.60;;
22826;SDS011;11580;52.562;13.418;2023-09-07T07:37:02;7.50;;;6.87;;
22826;SDS011;11580;52.562;13.418;2023-09-07T07:39:31;7.33;;;6.83;;
22826;SDS011;11580;52.562;13.418;2023-09-07T07:41:58;9.10;;;7.40;;
22826;SDS011;11580;52.562;13.418;2023-09-07T07:44:25;7.10;;;6.30;;
22826;SDS011;11580;52.562;13.418;2023-09-07T07:46:52;8.20;;;7.60;;
22826;SDS011;11580;52.562;13.418;2023-09-07T07:49:19;7.40;;;6.80;;
22826;SDS011;11580;52.562;13.418;2023-09-07T07:51:46;6.97;;;6.47;;
22826;SDS011;11580;52.562;13.418;2023-09-07T07:54:13;8.33;;;7.63;;
22826;SDS011;11580;52.562;13.418;2023-09-07T07:56:42;9.03;;;8.20;;
22826;SDS011;11580;52.562;13.418;2023-09-07T07:59:10;7.37;;;6.70;;
22826;SDS011;11580;52.562;13.418;2023-09-07T08:01:37;7.30;;;6.60;;
22826;SDS011;11580;52.562;13.418;2023-09-07T08:04:05;6.60;;;6.10;;
22826;SDS011;11580;52.562;13.418;2023-09-07T08:06:33;7.07;;;6.47;;
22826;SDS011;11580;52.562;13.418;2023-09-07T08:09:01;6.37;;;5.93;;
22826;SDS011;11580;52.562;13.418;2023-09-07T08:11:28;6.80;;;6.20;;
22826;SDS011;11580;52.562;13.418;2023-09-07T08:13:57;8.50;;;6.83;;
22826;SDS011;11580;52.562;13.418;2023-09-07T08:16:25;6.90;;;6.30;;
22826;SDS011;11580;52.562;13.418;2023-09-07T08:18:52;7.40;;;6.80;;
22826;SDS011;11580;52.562;13.418;2023-09-07T08:21:19;6.70;;;6.10;;
22826;SDS011;11580;52.562;13.418;2023-09-07T08:23:47;6.97;;;6.47;;
22826;SDS011;11580;52.562;13.418;2023-09-07T08:26:15;6.63;;;6.10;;
22826;SDS011;11580;52.562;13.418;2023-09-07T08:28:44;6.60;;;6.10;;
22826;SDS011;11580;52.562;13.418;2023-09-07T08:31:12;7.20;;;6.70;;
22826;SDS011;11580;52.562;13.418;2023-09-07T08:33:46;6.20;;;5.70;;
22826;SDS011;11580;52.562;13.418;2023-09-07T08:36:15;6.37;;;5.77;;
22826;SDS011;11580;52.562;13.418;2023-09-07T08:38:43;6.47;;;6.07;;
22826;SDS011;11580;52.562;13.418;2023-09-07T08:41:10;7.57;;;6.40;;
22826;SDS011;11580;52.562;13.418;2023-09-07T08:43:39;5.93;;;5.43;;
22826;SDS011;11580;52.562;13.418;2023-09-07T08:46:14;6.53;;;6.00;;
22826;SDS011;11580;52.562;13.418;2023-09-07T08:48:46;6.10;;;5.70;;
22826;SDS011;11580;52.562;13.418;2023-09-07T08:51:17;5.90;;;5.50;;
22826;SDS011;11580;52.562;13.418;2023-09-07T08:53:46;6.20;;;5.80;;
22826;SDS011;11580;52.562;13.418;2023-09-07T08:56:14;6.23;;;5.50;;
22826;SDS011;11580;52.562;13.418;2023-09-07T08:58:43;6.10;;;5.60;;
22826;SDS011;11580;52.562;13.418;2023-09-07T09:01:10;6.37;;;5.40;;
22826;SDS011;11580;52.562;13.418;2023-09-07T09:03:39;5.67;;;5.27;;
22826;SDS011;11580;52.562;13.418;2023-09-07T09:06:08;6.10;;;5.63;;
22826;SDS011;11580;52.562;13.418;2023-09-07T09:08:43;5.60;;;5.20;;
22826;SDS011;11580;52.562;13.418;2023-09-07T09:11:11;6.70;;;6.10;;
22826;SDS011;11580;52.562;13.418;2023-09-07T09:13:39;5.90;;;5.50;;
22826;SDS011;11580;52.562;13.418;2023-09-07T09:16:07;5.70;;;5.30;;
22826;SDS011;11580;52.562;13.418;2023-09-07T09:18:34;6.40;;;5.90;;
22826;SDS011;11580;52.562;13.418;2023-09-07T09:21:03;6.17;;;5.57;;
22826;SDS011;11580;52.562;13.418;2023-09-07T09:23:32;6.03;;;5.63;;
22826;SDS011;11580;52.562;13.418;2023-09-07T09:26:00;6.13;;;5.63;;
22826;SDS011;11580;52.562;13.418;2023-09-07T09:28:28;5.97;;;5.47;;
22826;SDS011;11580;52.562;13.418;2023-09-07T09:30:58;6.50;;;6.00;;
22826;SDS011;11580;52.562;13.418;2023-09-07T09:33:26;7.23;;;6.63;;
22826;SDS011;11580;52.562;13.418;2023-09-07T09:35:54;7.10;;;6.50;;
22826;SDS011;11580;52.562;13.418;2023-09-07T09:38:23;6.97;;;6.37;;
22826;SDS011;11580;52.562;13.418;2023-09-07T09:40:51;6.27;;;5.77;;
22826;SDS011;11580;52.562;13.418;2023-09-07T09:43:19;6.20;;;5.80;;
22826;SDS011;11580;52.562;13.418;2023-09-07T09:45:47;6.97;;;6.27;;
22826;SDS011;11580;52.562;13.418;2023-09-07T09:48:16;7.00;;;6.50;;
22826;SDS011;11580;52.562;13.418;2023-09-07T09:50:45;6.63;;;6.23;;
22826;SDS011;11580;52.562;13.418;2023-09-07T09:53:14;6.17;;;5.77;;
22826;SDS011;11580;52.562;13.418;2023-09-07T09:55:45;6.13;;;5.73;;
22826;SDS011;11580;52.562;13.418;2023-09-07T09:58:13;6.50;;;6.00;;
22826;SDS011;11580;52.562;13.418;2023-09-07T10:00:40;6.50;;;6.00;;
22826;SDS011;11580;52.562;13.418;2023-09-07T10:03:11;5.57;;;5.17;;
22826;SDS011;11580;52.562;13.418;2023-09-07T10:05:45;5.67;;;5.27;;
22826;SDS011;11580;52.562;13.418;2023-09-07T10:08:13;6.00;;;5.60;;
22826;SDS011;11580;52.562;13.418;2023-09-07T10:10:42;6.07;;;5.57;;
22826;SDS011;11580;52.562;13.418;2023-09-07T10:13:13;5.93;;;5.23;;
22826;SDS011;11580;52.562;13.418;2023-09-07T10:15:41;5.67;;;5.37;;
22826;SDS011;11580;52.562;13.418;2023-09-07T10:18:10;5.60;;;5.20;;
22826;SDS011;11580;52.562;13.418;2023-09-07T10:20:52;6.03;;;5.63;;
22826;SDS011;11580;52.562;13.418;2023-09-07T10:23:34;6.20;;;5.70;;
22826;SDS011;11580;52.562;13.418;2023-09-07T10:26:09;5.63;;;5.30;;
22826;SDS011;11580;52.562;13.418;2023-09-07T10:28:38;6.07;;;5.57;;
22826;SDS011;11580;52.562;13.418;2023-09-07T10:31:06;5.50;;;5.10;;
22826;SDS011;11580;52.562;13.418;2023-09-07T10:33:40;6.87;;;6.37;;
22826;SDS011;11580;52.562;13.418;2023-09-07T10:36:08;6.00;;;4.63;;
22826;SDS011;11580;52.562;13.418;2023-09-07T10:38:45;5.73;;;5.23;;
22826;SDS011;11580;52.562;13.418;2023-09-07T10:41:14;7.20;;;5.50;;
22826;SDS011;11580;52.562;13.418;2023-09-07T10:43:46;4.80;;;4.47;;
22826;SDS011;11580;52.562;13.418;2023-09-07T10:46:14;5.20;;;4.80;;
22826;SDS011;11580;52.562;13.418;2023-09-07T10:48:45;5.30;;;4.90;;
22826;SDS011;11580;52.562;13.418;2023-09-07T10:51:15;5.33;;;4.93;;
22826;SDS011;11580;52.562;13.418;2023-09-07T10:53:42;5.47;;;4.97;;
22826;SDS011;11580;52.562;13.418;2023-09-07T10:56:09;5.17;;;4.70;;
22826;SDS011;11580;52.562;13.418;2023-09-07T10:58:38;4.97;;;4.67;;
22826;SDS011;11580;52.562;13.418;2023-09-07T11:01:07;5.10;;;4.70;;
22826;SDS011;11580;52.562;13.418;2023-09-07T11:03:36;5.17;;;4.77;;
22826;SDS011;11580;52.562;13.418;2023-09-07T11:06:08;4.77;;;4.47;;
22826;SDS011;11580;52.562;13.418;2023-09-07T11:08:39;5.07;;;4.77;;
22826;SDS011;11580;52.562;13.418;2023-09-07T11:11:08;5.30;;;4.90;;
22826;SDS011;11580;52.562;13.418;2023-09-07T11:13:35;4.70;;;4.30;;
22826;SDS011;11580;52.562;13.418;2023-09-07T11:16:07;5.40;;;5.00;;
22826;SDS011;11580;52.562;13.418;2023-09-07T11:18:35;5.07;;;4.77;;
22826;SDS011;11580;52.562;13.418;2023-09-07T11:21:03;5.00;;;4.60;;
22826;SDS011;11580;52.562;13.418;2023-09-07T11:23:32;5.87;;;5.43;;
22826;SDS011;11580;52.562;13.418;2023-09-07T11:26:03;5.63;;;5.23;;
22826;SDS011;11580;52.562;13.418;2023-09-07T11:28:31;5.57;;;5.10;;
22826;SDS011;11580;52.562;13.418;2023-09-07T11:31:00;5.80;;;5.40;;
22826;SDS011;11580;52.562;13.418;2023-09-07T11:33:30;5.70;;;5.30;;
22826;SDS011;11580;52.562;13.418;2023-09-07T11:35:58;5.73;;;5.33;;
22826;SDS011;11580;52.562;13.418;2023-09-07T11:38:28;5.23;;;4.83;;
22826;SDS011;11580;52.562;13.418;2023-09-07T11:41:00;5.30;;;4.90;;
22826;SDS011;11580;52.562;13.418;2023-09-07T11:43:28;5.10;;;4.70;;
22826;SDS011;11580;52.562;13.418;2023-09-07T11:45:56;4.50;;;4.20;;
22826;SDS011;11580;52.562;13.418;2023-09-07T11:48:24;4.33;;;4.00;;
22826;SDS011;11580;52.562;13.418;2023-09-07T11:50:51;4.97;;;4.57;;
22826;SDS011;11580;52.562;13.418;2023-09-07T11:53:18;5.03;;;4.60;;
22826;SDS011;11580;52.562;13.418;2023-09-07T11:55:45;4.63;;;4.33;;
22826;SDS011;11580;52.562;13.418;2023-09-07T11:58:13;4.23;;;3.97;;
22826;SDS011;11580;52.562;13.418;2023-09-07T12:00:40;4.50;;;4.20;;
22826;SDS011;11580;52.562;13.418;2023-09-07T12:03:08;5.03;;;4.63;;
22826;SDS011;11580;52.562;13.418;2023-09-07T12:05:36;3.97;;;3.77;;
22826;SDS011;11580;52.562;13.418;2023-09-07T12:08:05;4.73;;;4.43;;
22826;SDS011;11580;52.562;13.418;2023-09-07T12:10:32;5.13;;;4.63;;
22826;SDS011;11580;52.562;13.418;2023-09-07T12:12:59;5.20;;;4.90;;
22826;SDS011;11580;52.562;13.418;2023-09-07T12:15:26;5.00;;;4.37;;
22826;SDS011;11580;52.562;13.418;2023-09-07T12:17:53;5.10;;;4.70;;
22826;SDS011;11580;52.562;13.418;2023-09-07T12:20:20;4.50;;;4.20;;
22826;SDS011;11580;52.562;13.418;2023-09-07T12:22:49;5.40;;;4.90;;
22826;SDS011;11580;52.562;13.418;2023-09-07T12:25:16;5.00;;;4.60;;
22826;SDS011;11580;52.562;13.418;2023-09-07T12:27:43;4.43;;;4.13;;
22826;SDS011;11580;52.562;13.418;2023-09-07T12:30:12;5.00;;;4.70;;
22826;SDS011;11580;52.562;13.418;2023-09-07T12:32:39;4.70;;;4.30;;
22826;SDS011;11580;52.562;13.418;2023-09-07T12:35:07;5.67;;;5.20;;
22826;SDS011;11580;52.562;13.418;2023-09-07T12:37:35;4.70;;;4.40;;
22826;SDS011;11580;52.562;13.418;2023-09-07T12:40:04;5.27;;;4.87;;
22826;SDS011;11580;52.562;13.418;2023-09-07T12:42:37;5.00;;;4.70;;
22826;SDS011;11580;52.562;13.418;2023-09-07T12:45:06;4.60;;;4.20;;
22826;SDS011;11580;52.562;13.418;2023-09-07T12:47:35;5.17;;;4.60;;
22826;SDS011;11580;52.562;13.418;2023-09-07T12:50:03;5.30;;;4.83;;
22826;SDS011;11580;52.562;13.418;2023-09-07T12:52:32;4.33;;;4.03;;
22826;SDS011;11580;52.562;13.418;2023-09-07T12:55:01;4.70;;;4.30;;
22826;SDS011;11580;52.562;13.418;2023-09-07T12:57:30;4.90;;;4.43;;
22826;SDS011;11580;52.562;13.418;2023-09-07T12:59:58;4.90;;;4.50;;
22826;SDS011;11580;52.562;13.418;2023-09-07T13:02:25;4.87;;;4.57;;
22826;SDS011;11580;52.562;13.418;2023-09-07T13:04:53;4.93;;;4.53;;
22826;SDS011;11580;52.562;13.418;2023-09-07T13:07:21;4.70;;;4.40;;
22826;SDS011;11580;52.562;13.418;2023-09-07T13:09:49;4.90;;;4.50;;
22826;SDS011;11580;52.562;13.418;2023-09-07T13:12:17;4.50;;;4.20;;
22826;SDS011;11580;52.562;13.418;2023-09-07T13:14:44;4.17;;;3.77;;
22826;SDS011;11580;52.562;13.418;2023-09-07T13:17:12;5.40;;;4.97;;
22826;SDS011;11580;52.562;13.418;2023-09-07T13:19:40;4.77;;;4.37;;
22826;SDS011;11580;52.562;13.418;2023-09-07T13:22:09;4.30;;;4.00;;
22826;SDS011;11580;52.562;13.418;2023-09-07T13:24:36;5.03;;;4.63;;
22826;SDS011;11580;52.562;13.418;2023-09-07T13:27:03;4.83;;;4.43;;
22826;SDS011;11580;52.562;13.418;2023-09-07T13:29:32;5.07;;;4.77;;
22826;SDS011;11580;52.562;13.418;2023-09-07T13:32:00;4.57;;;4.23;;
22826;SDS011;11580;52.562;13.418;2023-09-07T13:34:27;4.90;;;4.60;;
22826;SDS011;11580;52.562;13.418;2023-09-07T13:36:55;4.37;;;4.10;;
22826;SDS011;11580;52.562;13.418;2023-09-07T13:39:22;4.30;;;4.00;;
22826;SDS011;11580;52.562;13.418;2023-09-07T13:41:50;4.97;;;4.50;;
22826;SDS011;11580;52.562;13.418;2023-09-07T13:44:17;4.13;;;3.83;;
22826;SDS011;11580;52.562;13.418;2023-09-07T13:46:45;4.40;;;4.10;;
22826;SDS011;11580;52.562;13.418;2023-09-07T13:49:13;4.37;;;4.10;;
22826;SDS011;11580;52.562;13.418;2023-09-07T13:51:40;4.50;;;4.20;;
22826;SDS011;11580;52.562;13.418;2023-09-07T13:54:08;8.93;;;8.13;;
22826;SDS011;11580;52.562;13.418;2023-09-07T13:56:36;10.93;;;10.03;;
22826;SDS011;11580;52.562;13.418;2023-09-07T13:59:03;8.87;;;8.10;;
22826;SDS011;11580;52.562;13.418;2023-09-07T14:01:31;7.00;;;6.50;;
22826;SDS011;11580;52.562;13.418;2023-09-07T14:03:59;7.53;;;6.93;;
22826;SDS011;11580;52.562;13.418;2023-09-07T14:06:26;10.20;;;9.40;;
22826;SDS011;11580;52.562;13.418;2023-09-07T14:08:54;9.80;;;9.07;;
22826;SDS011;11580;52.562;13.418;2023-09-07T14:11:21;8.40;;;7.80;;
22826;SDS011;11580;52.562;13.418;2023-09-07T14:13:49;7.07;;;6.57;;
22826;SDS011;11580;52.562;13.418;2023-09-07T14:16:17;7.40;;;6.90;;
22826;SDS011;11580;52.562;13.418;2023-09-07T14:18:45;10.53;;;9.77;;
22826;SDS011;11580;52.562;13.418;2023-09-07T14:21:14;16.20;;;15.10;;
22826;SDS011;11580;52.562;13.418;2023-09-07T14:23:42;14.30;;;13.37;;
22826;SDS011;11580;52.562;13.418;2023-09-07T14:26:10;10.13;;;9.43;;
22826;SDS011;11580;52.562;13.418;2023-09-07T14:28:37;8.10;;;7.53;;
22826;SDS011;11580;52.562;13.418;2023-09-07T14:31:05;7.10;;;6.60;;
22826;SDS011;11580;52.562;13.418;2023-09-07T14:33:33;6.23;;;5.83;;
22826;SDS011;11580;52.562;13.418;2023-09-07T14:36:04;6.07;;;5.57;;
22826;SDS011;11580;52.562;13.418;2023-09-07T14:38:33;5.73;;;5.33;;
22826;SDS011;11580;52.562;13.418;2023-09-07T14:41:05;5.67;;;5.17;;